Time;durP1;ratioP1;P1;durP2;ratioP2;P2;SDS_P1;SDS_P2;PMS_P1;PMS_P2;Temp;Humidity;BMP_temperature;BMP_pressure;BME280_temperature;BME280_humidity;BME280_pressure;Samples;Min_cycle;Max_cycle;Signal;HPM_P1;HPM_P2
2024/04/03 00:00:24;;;;;;;1.63;0.95;;;11.40;99.90;;;;;;5006044;28;20315;-74
2024/04/03 00:02:49;;;;;;;2.50;0.73;;;11.40;99.90;;;;;;5014439;28;20208;-74
2024/04/03 00:05:15;;;;;;;1.93;0.90;;;11.40;99.90;;;;;;5014595;28;20185;-73
2024/04/03 00:07:41;;;;;;;2.22;1.02;;;11.40;99.90;;;;;;5014535;28;20581;-74
2024/04/03 00:10:07;;;;;;;2.97;1.43;;;11.40;99.90;;;;;;5013246;28;20585;-73
2024/04/03 00:12:32;;;;;;;1.80;1.00;;;11.40;99.90;;;;;;5014304;28;20244;-73
2024/04/03 00:14:58;;;;;;;3.63;0.90;;;11.40;99.90;;;;;;5009617;28;20660;-73
2024/04/03 00:17:23;;;;;;;2.13;0.90;;;11.40;99.90;;;;;;4998121;28;20232;-75
2024/04/03 00:19:49;;;;;;;2.22;1.00;;;11.50;99.90;;;;;;5005788;28;20202;-74
2024/04/03 00:22:14;;;;;;;4.57;0.90;;;11.50;99.90;;;;;;5013358;28;20643;-74
2024/04/03 00:24:40;;;;;;;1.80;1.00;;;11.50;99.90;;;;;;5014980;28;20189;-73
2024/04/03 00:27:06;;;;;;;3.40;0.93;;;11.50;99.90;;;;;;5013805;28;20201;-73
2024/04/03 00:29:31;;;;;;;2.92;0.90;;;11.50;99.90;;;;;;5014599;28;20189;-74
2024/04/03 00:31:57;;;;;;;2.37;1.03;;;11.40;99.90;;;;;;5012025;28;20284;-73
2024/04/03 00:34:22;;;;;;;1.20;0.98;;;11.40;99.90;;;;;;5002892;28;20186;-73
2024/04/03 00:36:48;;;;;;;3.33;0.97;;;11.40;99.90;;;;;;5006216;28;20252;-74
2024/04/03 00:39:13;;;;;;;1.13;0.77;;;11.40;99.90;;;;;;4996731;28;20190;-74
2024/04/03 00:41:39;;;;;;;2.05;1.17;;;11.40;99.90;;;;;;5010148;28;20694;-74
2024/04/03 00:44:05;;;;;;;2.50;0.85;;;11.30;99.90;;;;;;5008731;28;20182;-76
2024/04/03 00:46:30;;;;;;;2.03;0.93;;;11.30;99.90;;;;;;5009216;28;20611;-75
2024/04/03 00:48:56;;;;;;;3.63;1.35;;;11.40;99.90;;;;;;5067414;22;20231;-73
2024/04/03 00:51:22;;;;;;;2.65;0.90;;;11.40;99.90;;;;;;5049760;28;20182;-74
2024/04/03 00:53:48;;;;;;;2.83;1.00;;;11.40;99.90;;;;;;5051929;28;20192;-74
2024/04/03 00:56:14;;;;;;;4.30;1.20;;;11.40;99.90;;;;;;5052481;28;20175;-73
2024/04/03 00:58:40;;;;;;;2.10;0.90;;;11.40;99.90;;;;;;5037911;28;20512;-73
2024/04/03 01:01:05;;;;;;;6.35;1.27;;;11.50;99.90;;;;;;5034487;28;20181;-74
2024/04/03 01:03:31;;;;;;;2.85;1.00;;;11.50;99.90;;;;;;5032488;28;20209;-73
2024/04/03 01:06:01;;;;;;;3.83;1.20;;;11.50;99.90;;;;;;5032462;28;20191;-73
2024/04/03 01:08:27;;;;;;;5.05;1.77;;;11.50;99.90;;;;;;5030390;28;20231;-74
2024/04/03 01:10:53;;;;;;;3.30;1.17;;;11.50;99.90;;;;;;5036288;28;20654;-74
2024/04/03 01:13:19;;;;;;;1.63;0.95;;;11.50;99.90;;;;;;5018209;28;20180;-73
2024/04/03 01:15:44;;;;;;;2.58;1.10;;;11.60;99.90;;;;;;5035663;28;20279;-73
2024/04/03 01:18:10;;;;;;;3.17;1.08;;;11.50;99.90;;;;;;5034132;28;20219;-74
2024/04/03 01:20:36;;;;;;;2.22;1.17;;;11.40;99.90;;;;;;5033239;28;20195;-73
2024/04/03 01:23:01;;;;;;;3.25;1.20;;;11.30;99.90;;;;;;5033909;28;20695;-73
2024/04/03 01:25:27;;;;;;;3.10;1.20;;;11.40;99.90;;;;;;5036524;28;20206;-74
2024/04/03 01:27:53;;;;;;;3.00;1.27;;;11.40;99.90;;;;;;5016646;28;20208;-74
2024/04/03 01:30:18;;;;;;;3.17;1.23;;;11.40;99.90;;;;;;5029857;28;20185;-73
2024/04/03 01:32:44;;;;;;;2.47;0.82;;;11.40;99.90;;;;;;5034998;28;20725;-73
2024/04/03 01:35:10;;;;;;;1.95;1.00;;;11.40;99.90;;;;;;5033784;28;20536;-74
2024/04/03 01:37:36;;;;;;;3.45;1.20;;;11.40;99.90;;;;;;5033817;28;20207;-74
2024/04/03 01:40:01;;;;;;;3.03;1.13;;;11.40;99.90;;;;;;5033081;28;20547;-73
2024/04/03 01:42:27;;;;;;;1.67;1.00;;;11.40;99.90;;;;;;5032793;28;20212;-74
2024/04/03 01:44:53;;;;;;;3.33;1.40;;;11.50;99.90;;;;;;5032848;28;20181;-74
2024/04/03 01:47:18;;;;;;;5.25;1.27;;;11.40;99.90;;;;;;5032817;28;20266;-73
2024/04/03 01:49:44;;;;;;;2.67;1.20;;;11.40;99.90;;;;;;5033550;28;20195;-74
2024/04/03 01:52:10;;;;;;;1.73;1.00;;;11.30;99.90;;;;;;5032349;28;20216;-74
2024/04/03 01:54:35;;;;;;;3.88;1.17;;;11.30;99.90;;;;;;5019429;28;20297;-73
2024/04/03 01:57:01;;;;;;;3.13;1.40;;;11.30;99.90;;;;;;5038098;28;20199;-73
2024/04/03 01:59:26;;;;;;;3.90;1.20;;;11.30;99.90;;;;;;5040763;28;20203;-74
2024/04/03 02:01:52;;;;;;;5.33;1.20;;;11.30;99.90;;;;;;5032687;28;20216;-73
2024/04/03 02:04:18;;;;;;;4.17;1.43;;;11.20;99.90;;;;;;5033866;28;20666;-73
2024/04/03 02:06:43;;;;;;;3.47;1.48;;;11.10;99.90;;;;;;5031712;28;20215;-73
2024/04/03 02:09:09;;;;;;;1.17;0.90;;;11.00;99.90;;;;;;5017042;28;20689;-73
2024/04/03 02:11:34;;;;;;;2.73;1.17;;;11.00;99.90;;;;;;5026910;28;20209;-73
2024/04/03 02:14:00;;;;;;;3.57;0.93;;;10.90;99.90;;;;;;5032882;28;20666;-72
2024/04/03 02:16:29;;;;;;;3.50;0.90;;;10.90;99.90;;;;;;5015309;28;20185;-73
2024/04/03 02:18:55;;;;;;;2.33;1.13;;;10.80;99.90;;;;;;5030126;28;20204;-73
2024/04/03 02:21:20;;;;;;;4.60;0.93;;;10.90;99.90;;;;;;5035346;28;20188;-72
2024/04/03 02:23:46;;;;;;;2.03;0.80;;;10.90;99.90;;;;;;5031275;28;20220;-73
2024/04/03 02:26:12;;;;;;;4.00;1.00;;;10.90;99.90;;;;;;5031824;28;20188;-74
2024/04/03 02:28:37;;;;;;;2.93;0.70;;;10.80;99.90;;;;;;5026675;28;20254;-73
2024/04/03 02:31:03;;;;;;;1.20;0.87;;;10.80;99.90;;;;;;5032221;28;20242;-72
2024/04/03 02:33:28;;;;;;;2.80;1.10;;;10.80;99.90;;;;;;5031907;28;20685;-74
2024/04/03 02:35:54;;;;;;;3.90;1.17;;;10.70;99.90;;;;;;5032421;28;20685;-73
2024/04/03 02:38:21;;;;;;;1.57;0.90;;;10.60;99.90;;;;;;5031776;28;20219;-74
2024/04/03 02:40:46;;;;;;;2.50;1.03;;;10.60;99.90;;;;;;5031593;28;20203;-75
2024/04/03 02:43:12;;;;;;;1.83;0.80;;;10.60;99.90;;;;;;5032227;28;20707;-73
2024/04/03 02:45:38;;;;;;;3.80;1.43;;;10.60;99.90;;;;;;5029844;28;20184;-73
2024/04/03 02:48:04;;;;;;;3.97;1.03;;;10.60;99.90;;;;;;5031797;28;20220;-73
2024/04/03 02:50:30;;;;;;;1.77;1.00;;;10.60;99.90;;;;;;5031601;28;20184;-72
2024/04/03 02:52:55;;;;;;;2.93;1.13;;;10.60;99.90;;;;;;5031982;28;20220;-73
2024/04/03 02:55:21;;;;;;;1.03;0.77;;;10.60;99.90;;;;;;5035198;28;20207;-74
2024/04/03 02:57:46;;;;;;;2.17;0.95;;;10.60;99.90;;;;;;5026450;28;20220;-73
2024/04/03 03:00:13;;;;;;;1.80;0.80;;;10.60;99.90;;;;;;5033751;28;20180;-73
2024/04/03 03:02:38;;;;;;;1.47;1.00;;;10.70;99.90;;;;;;5033098;28;20208;-73
2024/04/03 03:05:04;;;;;;;4.00;1.33;;;10.70;99.90;;;;;;5025456;28;20193;-74
2024/04/03 03:07:30;;;;;;;4.97;1.10;;;10.80;99.90;;;;;;5032270;28;20737;-74
2024/04/03 03:09:55;;;;;;;2.08;1.17;;;10.70;99.90;;;;;;5034430;28;20185;-73
2024/04/03 03:12:21;;;;;;;2.03;1.10;;;10.60;99.90;;;;;;5028844;28;20227;-73
2024/04/03 03:14:46;;;;;;;1.60;0.93;;;10.60;99.90;;;;;;5032632;28;20200;-73
2024/04/03 03:17:12;;;;;;;2.33;1.17;;;10.60;99.90;;;;;;5018189;28;20688;-74
2024/04/03 03:19:38;;;;;;;2.90;0.97;;;10.60;99.90;;;;;;5045566;28;20204;-74
2024/04/03 03:22:03;;;;;;;3.23;1.27;;;10.70;99.90;;;;;;5038247;28;20299;-73
2024/04/03 03:24:29;;;;;;;2.13;0.90;;;10.70;99.90;;;;;;5019439;28;20184;-73
2024/04/03 03:26:55;;;;;;;1.33;0.77;;;10.70;99.90;;;;;;5029931;28;20681;-73
2024/04/03 03:29:21;;;;;;;0.90;0.60;;;10.70;99.90;;;;;;5036344;28;20268;-73
2024/04/03 03:31:47;;;;;;;3.57;1.10;;;10.60;99.90;;;;;;5035413;28;20231;-73
2024/04/03 03:34:13;;;;;;;1.53;0.90;;;10.60;99.90;;;;;;5041637;28;20181;-73
2024/04/03 03:36:39;;;;;;;2.27;1.00;;;10.50;99.90;;;;;;5037114;28;20191;-73
2024/04/03 03:39:04;;;;;;;2.57;1.00;;;10.40;99.90;;;;;;5033152;28;20212;-72
2024/04/03 03:41:30;;;;;;;2.33;1.00;;;10.30;99.90;;;;;;5037530;28;20264;-73
2024/04/03 03:43:55;;;;;;;0.90;0.83;;;10.40;99.90;;;;;;5037152;28;20192;-73
2024/04/03 03:46:21;;;;;;;2.20;1.10;;;10.40;99.90;;;;;;5021971;28;20184;-73
2024/04/03 03:54:15;;;;;;;2.07;0.70;;;10.50;99.90;;;;;;5035826;28;20661;-73
2024/04/03 03:56:40;;;;;;;1.70;0.90;;;10.60;99.90;;;;;;5034367;28;20181;-73
2024/04/03 03:59:06;;;;;;;3.97;1.10;;;10.60;99.90;;;;;;5017084;28;20220;-73
2024/04/03 04:01:32;;;;;;;2.00;0.93;;;10.60;99.90;;;;;;5035393;28;20206;-73
2024/04/03 04:03:58;;;;;;;2.70;1.13;;;10.50;99.90;;;;;;5035663;28;20231;-74
2024/04/03 04:06:23;;;;;;;3.63;1.70;;;10.50;99.90;;;;;;5026634;28;20176;-74
2024/04/03 04:08:49;;;;;;;3.47;1.07;;;10.60;99.90;;;;;;5035569;28;20211;-74
2024/04/03 04:11:14;;;;;;;2.57;1.10;;;10.50;99.90;;;;;;5035148;28;20290;-74
2024/04/03 04:13:40;;;;;;;2.00;0.93;;;10.50;99.90;;;;;;5033930;28;20196;-73
2024/04/03 04:16:06;;;;;;;1.27;0.90;;;10.60;99.90;;;;;;5035710;28;20271;-73
2024/04/03 04:18:32;;;;;;;3.93;1.40;;;10.60;99.90;;;;;;5036293;28;20634;-73
2024/04/03 04:20:58;;;;;;;2.70;1.20;;;10.60;99.90;;;;;;5036822;28;20215;-73
2024/04/03 04:23:24;;;;;;;2.00;1.13;;;10.60;99.90;;;;;;5035359;28;20285;-73
2024/04/03 04:26:02;;;;;;;1.40;1.00;;;10.70;99.90;;;;;;5034315;28;20203;-73
2024/04/03 04:28:28;;;;;;;3.83;1.60;;;10.70;99.90;;;;;;5018320;28;20283;-74
2024/04/03 04:31:01;;;;;;;2.67;1.37;;;10.70;99.90;;;;;;5035358;28;20207;-73
2024/04/03 04:33:32;;;;;;;1.67;0.80;;;10.70;99.90;;;;;;5034538;28;20185;-72
2024/04/03 04:35:58;;;;;;;5.03;0.90;;;10.70;99.90;;;;;;5035460;28;20271;-72
2024/04/03 04:38:25;;;;;;;2.27;1.20;;;10.60;99.90;;;;;;5034480;28;20223;-73
2024/04/03 04:40:55;;;;;;;4.50;1.33;;;10.60;99.90;;;;;;5041746;28;20207;-72
2024/04/03 04:43:22;;;;;;;3.37;1.17;;;10.70;99.90;;;;;;5033882;28;20302;-73
2024/04/03 04:46:01;;;;;;;7.37;1.23;;;10.70;99.90;;;;;;5037746;28;20503;-72
2024/04/03 04:48:28;;;;;;;1.50;0.97;;;10.60;99.90;;;;;;5027263;28;20610;-73
2024/04/03 04:50:58;;;;;;;1.53;0.80;;;10.60;99.90;;;;;;5016550;28;20235;-73
2024/04/03 04:53:24;;;;;;;3.87;1.27;;;10.60;99.90;;;;;;5016338;28;20184;-73
2024/04/03 04:55:54;;;;;;;3.50;0.83;;;10.50;99.90;;;;;;5038601;28;20189;-73
2024/04/03 04:58:21;;;;;;;3.00;0.93;;;10.50;99.90;;;;;;5034063;28;20216;-72
2024/04/03 05:00:48;;;;;;;2.70;0.90;;;10.50;99.90;;;;;;5034825;28;20255;-74
2024/04/03 05:03:13;;;;;;;3.10;1.00;;;10.60;99.90;;;;;;5034907;28;20303;-73
2024/04/03 05:05:39;;;;;;;3.07;1.33;;;10.60;99.90;;;;;;5035773;28;20212;-73
2024/04/03 05:08:06;;;;;;;3.33;1.10;;;10.60;99.90;;;;;;5034928;28;20227;-74
2024/04/03 05:10:33;;;;;;;6.43;1.10;;;10.60;99.90;;;;;;5035908;28;20212;-72
2024/04/03 05:12:59;;;;;;;2.43;1.40;;;10.60;99.90;;;;;;5049286;28;20187;-74
2024/04/03 05:15:28;;;;;;;5.13;1.53;;;10.70;99.90;;;;;;5043682;28;20189;-73
2024/04/03 05:17:54;;;;;;;6.97;1.50;;;10.70;99.90;;;;;;5036039;28;20216;-73
2024/04/03 05:20:20;;;;;;;2.90;1.27;;;10.70;99.90;;;;;;5024472;28;20188;-73
2024/04/03 05:22:45;;;;;;;2.30;1.13;;;10.70;99.90;;;;;;5033836;28;20215;-73
2024/04/03 05:25:12;;;;;;;3.13;1.10;;;10.70;99.90;;;;;;5034656;28;20188;-73
2024/04/03 05:27:37;;;;;;;2.33;1.10;;;10.70;99.90;;;;;;5034560;28;20200;-73
2024/04/03 05:30:03;;;;;;;2.37;1.13;;;10.80;99.90;;;;;;5034399;28;20583;-74
2024/04/03 05:32:29;;;;;;;3.20;1.10;;;10.80;99.90;;;;;;5033600;28;20199;-73
2024/04/03 05:34:55;;;;;;;5.17;1.20;;;10.80;99.90;;;;;;5033925;28;20238;-73
2024/04/03 05:37:20;;;;;;;7.27;1.40;;;10.90;99.90;;;;;;5033140;28;20302;-73
2024/04/03 05:39:46;;;;;;;4.67;1.00;;;10.90;99.90;;;;;;5034129;28;20228;-72
2024/04/03 05:42:11;;;;;;;2.33;1.03;;;10.90;99.90;;;;;;5032719;28;20215;-73
2024/04/03 05:44:37;;;;;;;5.37;1.27;;;10.90;99.90;;;;;;5033525;28;20176;-73
2024/04/03 05:47:03;;;;;;;2.77;1.20;;;10.90;99.90;;;;;;5033378;28;20330;-73
2024/04/03 05:49:28;;;;;;;3.47;1.30;;;10.80;99.90;;;;;;5033421;28;20189;-73
2024/04/03 05:51:55;;;;;;;6.53;1.40;;;10.80;99.90;;;;;;5035192;28;20491;-73
2024/04/03 05:54:20;;;;;;;3.03;1.30;;;10.80;99.90;;;;;;5033918;28;20742;-73
2024/04/03 05:56:46;;;;;;;1.93;1.30;;;10.90;99.90;;;;;;5025547;28;20216;-74
2024/04/03 05:59:11;;;;;;;2.27;1.27;;;10.90;99.90;;;;;;5044702;28;20287;-73
2024/04/03 06:01:37;;;;;;;2.60;0.90;;;10.90;99.90;;;;;;5040522;28;20245;-73
2024/04/03 06:04:03;;;;;;;3.23;1.17;;;10.90;99.90;;;;;;5034035;28;20703;-74
2024/04/03 06:06:28;;;;;;;5.53;1.33;;;10.90;99.90;;;;;;5033584;28;20200;-73
2024/04/03 06:08:54;;;;;;;2.67;1.00;;;10.90;99.90;;;;;;5034426;28;20205;-72
2024/04/03 06:11:19;;;;;;;3.53;1.10;;;10.90;99.90;;;;;;5034548;28;20184;-74
2024/04/03 06:13:45;;;;;;;3.57;1.17;;;10.90;99.90;;;;;;5035822;28;20191;-74
2024/04/03 06:16:10;;;;;;;7.00;1.60;;;10.90;99.90;;;;;;5038094;28;20188;-73
2024/04/03 06:18:36;;;;;;;2.70;1.27;;;10.90;99.90;;;;;;5033701;28;20207;-73
2024/04/03 06:21:12;;;;;;;3.17;1.60;;;10.90;99.90;;;;;;5035591;28;20251;-73
2024/04/03 06:23:38;;;;;;;4.13;1.67;;;10.90;99.90;;;;;;5034679;28;20211;-73
2024/04/03 06:26:04;;;;;;;2.50;1.20;;;11.00;99.90;;;;;;5035000;28;20267;-73
2024/04/03 06:28:29;;;;;;;2.80;1.20;;;11.00;99.90;;;;;;5033525;28;20195;-73
2024/04/03 06:30:55;;;;;;;3.30;1.30;;;10.90;99.90;;;;;;5031941;28;20184;-74
2024/04/03 06:33:21;;;;;;;3.47;1.10;;;10.90;99.90;;;;;;5015763;28;20189;-73
2024/04/03 06:35:46;;;;;;;1.33;1.00;;;10.80;99.90;;;;;;5034302;28;20192;-73
2024/04/03 06:38:13;;;;;;;3.37;1.60;;;10.70;99.90;;;;;;5033141;28;20216;-73
2024/04/03 06:40:39;;;;;;;1.40;0.87;;;10.80;99.90;;;;;;5036797;28;20592;-73
2024/04/03 06:43:06;;;;;;;3.43;1.20;;;10.80;99.90;;;;;;5032446;28;20216;-73
2024/04/03 06:45:32;;;;;;;2.57;1.03;;;10.80;99.90;;;;;;5034154;28;20188;-73
2024/04/03 06:47:58;;;;;;;7.67;1.43;;;10.70;99.90;;;;;;5072253;22;20692;-72
2024/04/03 06:50:24;;;;;;;1.93;0.87;;;10.80;99.90;;;;;;5073575;28;20229;-73
2024/04/03 06:52:49;;;;;;;3.73;1.33;;;10.80;99.90;;;;;;5065041;28;20187;-72
2024/04/03 06:55:15;;;;;;;2.23;1.27;;;10.80;99.90;;;;;;5053698;28;20228;-72
2024/04/03 06:57:43;;;;;;;3.93;1.30;;;10.90;99.90;;;;;;5072770;28;20199;-73
2024/04/03 07:00:09;;;;;;;3.17;1.10;;;10.80;99.90;;;;;;5052685;28;20242;-72
2024/04/03 07:02:36;;;;;;;5.37;3.03;;;10.90;99.90;;;;;;5064242;28;20811;-74
2024/04/03 07:05:03;;;;;;;7.63;4.37;;;10.90;99.90;;;;;;5072437;28;20555;-73
2024/04/03 07:07:29;;;;;;;6.83;1.47;;;11.00;99.90;;;;;;5072947;28;20186;-73
2024/04/03 07:09:58;;;;;;;1.87;1.20;;;11.00;99.90;;;;;;5071454;28;20175;-71
2024/04/03 07:12:24;;;;;;;1.50;0.97;;;11.00;99.90;;;;;;5062598;28;20240;-73
2024/04/03 07:14:49;;;;;;;1.73;0.97;;;11.00;99.90;;;;;;5052052;28;20669;-72
2024/04/03 07:17:15;;;;;;;3.50;1.60;;;11.00;99.90;;;;;;5070671;28;20559;-73
2024/04/03 07:19:41;;;;;;;2.43;0.73;;;11.00;99.90;;;;;;5077775;28;20211;-73
2024/04/03 07:22:07;;;;;;;2.53;1.10;;;11.00;99.90;;;;;;5074385;28;20215;-72
2024/04/03 07:24:33;;;;;;;3.00;1.30;;;11.10;99.90;;;;;;5073247;28;21223;-73
2024/04/03 07:26:58;;;;;;;3.13;1.20;;;11.10;99.90;;;;;;5053401;28;20625;-73
2024/04/03 07:29:24;;;;;;;1.00;0.90;;;11.10;99.90;;;;;;5053905;28;20204;-74
2024/04/03 07:31:51;;;;;;;2.93;1.50;;;11.20;99.90;;;;;;5072161;28;20175;-72
2024/04/03 07:34:16;;;;;;;8.40;1.70;;;11.10;99.90;;;;;;5054062;28;20183;-72
2024/04/03 07:36:43;;;;;;;3.27;1.33;;;11.20;99.90;;;;;;5073981;28;20186;-73
2024/04/03 07:39:10;;;;;;;7.57;1.77;;;11.20;99.90;;;;;;5066097;28;20426;-73
2024/04/03 07:41:35;;;;;;;2.33;1.00;;;11.20;99.90;;;;;;5052585;28;20176;-75
2024/04/03 07:44:02;;;;;;;4.23;1.23;;;11.30;99.90;;;;;;5047426;28;20212;-73
2024/04/03 07:46:28;;;;;;;2.67;1.20;;;11.30;99.90;;;;;;5062370;28;20561;-73
2024/04/03 07:48:53;;;;;;;2.90;1.10;;;11.40;99.90;;;;;;5070393;28;20543;-73
2024/04/03 07:51:19;;;;;;;3.53;1.03;;;11.60;99.90;;;;;;5078430;28;20180;-74
2024/04/03 07:53:45;;;;;;;5.70;1.30;;;11.60;99.90;;;;;;5054894;28;20654;-73
2024/04/03 07:56:14;;;;;;;6.25;1.42;;;11.70;99.90;;;;;;5059895;28;20182;-72
2024/04/03 07:58:41;;;;;;;4.68;1.33;;;11.80;99.90;;;;;;5072117;28;20288;-72
2024/04/03 08:01:06;;;;;;;3.25;1.30;;;11.80;99.90;;;;;;5071575;28;20594;-74
2024/04/03 08:03:33;;;;;;;1.50;0.95;;;11.70;99.90;;;;;;5071170;28;20206;-73
2024/04/03 08:05:59;;;;;;;3.17;1.30;;;11.70;99.90;;;;;;5066526;28;20371;-74
2024/04/03 08:08:31;;;;;;;8.10;1.80;;;11.80;99.90;;;;;;5054965;28;20200;-73
2024/04/03 08:11:02;;;;;;;4.40;1.60;;;11.90;99.90;;;;;;5049394;28;20184;-72
2024/04/03 08:13:28;;;;;;;2.95;1.30;;;12.00;99.90;;;;;;5065291;28;20191;-72
2024/04/03 08:16:02;;;;;;;4.28;1.40;;;12.10;99.90;;;;;;5076102;28;20637;-72
2024/04/03 08:18:28;;;;;;;7.50;1.75;;;12.40;99.90;;;;;;5075133;28;20314;-72
2024/04/03 08:21:03;;;;;;;2.53;1.27;;;12.60;99.90;;;;;;5044100;28;20198;-72
2024/04/03 08:23:31;;;;;;;5.55;2.28;;;12.60;99.90;;;;;;5056404;28;20276;-72
2024/04/03 08:26:03;;;;;;;5.55;2.00;;;12.60;99.90;;;;;;5067806;28;20179;-72
2024/04/03 08:28:28;;;;;;;2.85;1.33;;;12.60;99.90;;;;;;5075240;28;20199;-73
2024/04/03 08:30:54;;;;;;;2.00;1.08;;;12.60;99.90;;;;;;5061505;28;20191;-72
2024/04/03 08:33:21;;;;;;;2.75;1.40;;;12.60;99.90;;;;;;5061421;28;20358;-73
2024/04/03 08:35:47;;;;;;;2.67;1.20;;;12.60;99.90;;;;;;5062784;28;20650;-73
2024/04/03 08:38:12;;;;;;;6.45;1.40;;;12.60;99.90;;;;;;5071573;28;20693;-74
2024/04/03 08:40:39;;;;;;;2.42;1.25;;;12.60;99.90;;;;;;5079222;28;20227;-72
2024/04/03 08:43:08;;;;;;;2.88;1.23;;;12.60;99.90;;;;;;5082534;28;20202;-73
2024/04/03 08:45:36;;;;;;;2.78;1.27;;;12.60;99.90;;;;;;5074853;28;20622;-72
2024/04/03 08:48:04;;;;;;;1.42;1.10;;;12.60;99.90;;;;;;5051989;28;20211;-73
2024/04/03 08:50:30;;;;;;;2.50;1.10;;;12.60;99.90;;;;;;5064559;28;20179;-73
2024/04/03 08:52:56;;;;;;;7.38;1.38;;;12.60;99.90;;;;;;5073122;28;20333;-72
2024/04/03 08:55:23;;;;;;;2.67;1.20;;;12.60;99.90;;;;;;5067846;28;20187;-73
2024/04/03 08:57:49;;;;;;;4.20;1.20;;;12.60;99.90;;;;;;5050207;28;20522;-72
2024/04/03 09:00:15;;;;;;;2.88;1.17;;;12.70;99.90;;;;;;5074488;28;20178;-73
2024/04/03 09:02:41;;;;;;;1.85;0.93;;;12.70;99.90;;;;;;5074322;28;20583;-72
2024/04/03 09:05:09;;;;;;;5.82;1.23;;;12.80;99.90;;;;;;5077080;28;20176;-72
2024/04/03 09:07:34;;;;;;;1.25;1.10;;;12.80;99.90;;;;;;5076233;28;20259;-72
2024/04/03 09:10:00;;;;;;;4.18;1.58;;;12.90;99.90;;;;;;5061381;28;20544;-73
2024/04/03 09:12:26;;;;;;;2.55;1.08;;;12.90;99.90;;;;;;5056285;28;20207;-72
2024/04/03 09:15:06;;;;;;;3.17;1.02;;;13.00;99.90;;;;;;5066589;28;20194;-73
2024/04/03 09:17:31;;;;;;;4.00;1.02;;;13.10;99.90;;;;;;5074361;28;20598;-73
2024/04/03 09:19:57;;;;;;;0.85;0.80;;;13.10;99.90;;;;;;5060907;28;20188;-72
2024/04/03 09:22:22;;;;;;;2.10;1.00;;;13.20;99.90;;;;;;5053439;28;20258;-74
2024/04/03 09:24:48;;;;;;;3.95;0.90;;;13.20;99.90;;;;;;5054409;28;20182;-74
2024/04/03 09:27:14;;;;;;;0.55;0.55;;;13.30;99.90;;;;;;5068734;28;20175;-73
2024/04/03 09:29:39;;;;;;;9.88;1.02;;;13.30;99.90;;;;;;5073472;28;20351;-73
2024/04/03 09:32:07;;;;;;;5.25;0.98;;;13.30;99.90;;;;;;5072274;28;20171;-73
2024/04/03 09:34:34;;;;;;;5.38;0.90;;;13.30;99.90;;;;;;5052750;28;20180;-73
2024/04/03 09:37:02;;;;;;;1.27;0.70;;;13.40;99.90;;;;;;5066220;28;20206;-72
2024/04/03 09:39:28;;;;;;;1.48;0.85;;;13.40;99.90;;;;;;5063556;28;20203;-73
2024/04/03 09:42:03;;;;;;;1.27;0.80;;;13.50;99.90;;;;;;5052524;28;20184;-74
2024/04/03 09:44:31;;;;;;;1.30;0.80;;;13.50;99.90;;;;;;5061755;28;20186;-73
2024/04/03 09:47:05;;;;;;;3.80;1.00;;;13.50;99.90;;;;;;5073766;28;20179;-72
2024/04/03 09:49:40;;;;;;;1.25;0.70;;;13.60;99.90;;;;;;5073944;28;20279;-73
2024/04/03 09:52:09;;;;;;;3.72;0.90;;;13.60;99.90;;;;;;5065451;28;20228;-74
2024/04/03 09:54:36;;;;;;;1.92;0.93;;;13.60;99.90;;;;;;5053873;28;20287;-73
2024/04/03 09:57:04;;;;;;;2.20;0.70;;;13.60;99.90;;;;;;5061161;28;20184;-74
2024/04/03 09:59:30;;;;;;;1.17;1.00;;;13.60;99.90;;;;;;5055013;28;20199;-73
2024/04/03 10:01:56;;;;;;;1.10;0.70;;;13.60;99.90;;;;;;5079939;28;20194;-74
2024/04/03 10:04:21;;;;;;;2.90;1.02;;;13.60;99.90;;;;;;5055471;28;20772;-73
2024/04/03 10:06:48;;;;;;;1.23;0.82;;;13.60;99.90;;;;;;5056974;28;20188;-73
2024/04/03 10:09:16;;;;;;;2.40;0.73;;;13.60;99.90;;;;;;5056835;28;20200;-74
2024/04/03 10:11:52;;;;;;;1.85;0.90;;;13.60;99.90;;;;;;5067494;28;20178;-73
2024/04/03 10:14:28;;;;;;;2.03;0.90;;;13.60;99.90;;;;;;5073362;28;20182;-72
2024/04/03 10:16:57;;;;;;;2.75;1.15;;;13.70;99.90;;;;;;5072953;28;20711;-72
2024/04/03 10:19:29;;;;;;;1.15;0.68;;;13.80;99.90;;;;;;5055925;28;20231;-72
2024/04/03 10:21:56;;;;;;;2.42;0.80;;;13.90;99.90;;;;;;5064409;28;20201;-73
2024/04/03 10:24:22;;;;;;;1.50;1.00;;;13.90;99.90;;;;;;5076830;28;20179;-72
2024/04/03 10:26:49;;;;;;;1.52;0.75;;;13.90;99.90;;;;;;5056709;28;20179;-73
2024/04/03 10:29:14;;;;;;;2.10;0.75;;;14.00;99.90;;;;;;5058160;28;20191;-72
2024/04/03 10:31:40;;;;;;;2.38;1.00;;;14.00;99.90;;;;;;5073955;28;20202;-72
2024/04/03 10:34:09;;;;;;;3.28;0.80;;;14.00;99.90;;;;;;5055495;28;20188;-72
2024/04/03 10:36:34;;;;;;;1.13;0.90;;;14.10;99.90;;;;;;5068217;28;20265;-72
2024/04/03 10:39:01;;;;;;;2.22;0.77;;;14.10;99.90;;;;;;5061263;28;20235;-73
2024/04/03 10:41:26;;;;;;;1.10;0.70;;;14.20;99.90;;;;;;5068704;28;20221;-72
2024/04/03 10:43:52;;;;;;;2.63;0.90;;;14.30;99.90;;;;;;5056642;28;20709;-72
2024/04/03 10:46:25;;;;;;;2.42;1.20;;;14.30;99.90;;;;;;5052540;28;20176;-71
2024/04/03 10:48:55;;;;;;;1.98;0.70;;;14.30;99.90;;;;;;5070047;28;20219;-71
2024/04/03 10:51:21;;;;;;;1.23;0.77;;;14.30;99.90;;;;;;5070914;28;20239;-73
2024/04/03 10:53:48;;;;;;;2.95;0.45;;;14.20;99.90;;;;;;5063137;28;20618;-73
2024/04/03 10:56:18;;;;;;;2.50;0.82;;;14.20;99.90;;;;;;5066543;28;20224;-72
2024/04/03 10:58:44;;;;;;;1.95;0.60;;;14.20;99.90;;;;;;5059542;28;20208;-72
2024/04/03 11:01:14;;;;;;;2.10;0.82;;;14.10;99.90;;;;;;5051311;28;20340;-71
2024/04/03 11:03:41;;;;;;;1.70;0.70;;;14.20;99.90;;;;;;5060397;28;20251;-72
2024/04/03 11:06:09;;;;;;;0.63;0.45;;;14.20;99.90;;;;;;5065024;28;20175;-71
2024/04/03 11:08:34;;;;;;;1.10;0.45;;;14.20;99.90;;;;;;5054636;28;20226;-73
2024/04/03 11:11:04;;;;;;;1.17;0.55;;;14.30;99.90;;;;;;5061702;28;20183;-72
2024/04/03 11:13:29;;;;;;;1.95;0.70;;;14.30;99.90;;;;;;5060303;28;20186;-73
2024/04/03 11:15:55;;;;;;;1.05;0.50;;;14.30;99.90;;;;;;5063562;28;20191;-72
2024/04/03 11:18:21;;;;;;;6.13;0.40;;;14.40;99.90;;;;;;5065263;28;20427;-73
2024/04/03 11:20:48;;;;;;;1.33;0.73;;;14.30;99.90;;;;;;5061655;28;20658;-73
2024/04/03 11:23:14;;;;;;;1.30;0.40;;;14.30;99.90;;;;;;5073198;28;20211;-74
2024/04/03 11:25:40;;;;;;;0.50;0.50;;;14.30;99.90;;;;;;5063896;28;20190;-72
2024/04/03 11:28:05;;;;;;;0.60;0.50;;;14.20;99.90;;;;;;5066504;28;20232;-74
2024/04/03 11:30:32;;;;;;;3.45;0.70;;;14.20;99.90;;;;;;5058201;28;20172;-72
2024/04/03 11:32:58;;;;;;;2.13;0.50;;;14.10;99.90;;;;;;5055566;28;20588;-72
2024/04/03 11:35:24;;;;;;;1.05;0.77;;;14.10;99.90;;;;;;5072830;28;20206;-72
2024/04/03 11:37:50;;;;;;;1.75;0.70;;;14.10;99.90;;;;;;5061147;28;20712;-73
2024/04/03 11:40:16;;;;;;;2.55;0.95;;;14.20;99.90;;;;;;5053112;28;20247;-71
2024/04/03 11:42:42;;;;;;;2.08;0.93;;;14.30;99.90;;;;;;5071242;28;20661;-72
2024/04/03 11:45:07;;;;;;;1.40;0.90;;;14.30;99.90;;;;;;5076354;28;20200;-74
2024/04/03 11:47:34;;;;;;;1.98;0.65;;;14.30;99.90;;;;;;5083644;28;20228;-74
2024/04/03 11:50:00;;;;;;;6.03;0.52;;;14.30;99.90;;;;;;5082959;28;20194;-72
2024/04/03 11:52:26;;;;;;;2.90;0.88;;;14.30;99.90;;;;;;5066017;28;20188;-74
2024/04/03 11:54:52;;;;;;;1.02;0.40;;;14.30;99.90;;;;;;5071845;28;20583;-72
2024/04/03 11:57:18;;;;;;;1.17;0.50;;;14.30;99.90;;;;;;5083579;28;20183;-72
2024/04/03 11:59:43;;;;;;;1.92;0.70;;;14.40;99.90;;;;;;5061985;28;20234;-73
2024/04/03 12:02:09;;;;;;;1.17;0.50;;;14.40;99.90;;;;;;5069740;28;20203;-72
2024/04/03 12:04:35;;;;;;;1.85;0.82;;;14.40;99.90;;;;;;5068309;28;20176;-72
2024/04/03 12:07:01;;;;;;;1.05;0.70;;;14.50;99.90;;;;;;5058609;28;20175;-72
2024/04/03 12:09:27;;;;;;;1.38;0.90;;;14.50;99.90;;;;;;5074008;28;20243;-72
2024/04/03 12:11:52;;;;;;;2.08;0.60;;;14.60;99.90;;;;;;5075363;28;20191;-73
2024/04/03 12:14:18;;;;;;;0.93;0.40;;;14.70;99.90;;;;;;5073949;28;20171;-73
2024/04/03 12:16:45;;;;;;;2.17;0.50;;;14.60;99.90;;;;;;5065874;28;20183;-71
2024/04/03 12:19:15;;;;;;;3.50;0.75;;;14.40;99.90;;;;;;5066874;28;20582;-72
2024/04/03 12:21:42;;;;;;;1.52;0.70;;;14.40;99.90;;;;;;5074035;28;20183;-72
2024/04/03 12:24:08;;;;;;;1.23;0.50;;;14.50;99.90;;;;;;5084316;28;20206;-74
2024/04/03 12:26:34;;;;;;;1.88;0.70;;;14.60;99.90;;;;;;5086911;28;20182;-72
2024/04/03 12:29:00;;;;;;;3.72;0.65;;;14.70;99.90;;;;;;5079807;28;20203;-74
2024/04/03 12:31:27;;;;;;;1.27;0.70;;;14.80;99.90;;;;;;5062001;28;20202;-74
2024/04/03 12:33:53;;;;;;;1.65;1.25;;;14.90;99.90;;;;;;5066561;28;20191;-71
2024/04/03 12:36:19;;;;;;;1.50;0.70;;;15.10;99.90;;;;;;5076293;28;20270;-73
2024/04/03 12:38:47;;;;;;;1.70;0.98;;;15.20;99.90;;;;;;5075786;28;20225;-72
2024/04/03 12:41:14;;;;;;;2.33;0.77;;;15.20;99.90;;;;;;5074773;28;20552;-74
2024/04/03 12:43:39;;;;;;;1.55;0.50;;;15.30;99.90;;;;;;5075715;28;20994;-73
2024/04/03 12:46:05;;;;;;;0.82;0.77;;;15.40;99.90;;;;;;5068510;28;20180;-72
2024/04/03 12:48:30;;;;;;;2.80;1.13;;;15.40;99.90;;;;;;5070807;28;20211;-73